Time;durP1;ratioP1;P1;durP2;ratioP2;P2;SDS_P1;SDS_P2;PMS_P1;PMS_P2;Temp;Humidity;BMP_temperature;BMP_pressure;BME280_temperature;BME280_humidity;BME280_pressure;Samples;Min_cycle;Max_cycle;Signal;HPM_P1;HPM_P2
2020/12/10 00:01:34;;;;;;;85.72;33.58;;;3.20;99.90;;;;;;5044817;28;20036;-76
2020/12/10 00:04:00;;;;;;;81.05;31.73;;;3.10;99.90;;;;;;5046685;28;20057;-76
2020/12/10 00:06:26;;;;;;;86.75;33.45;;;3.10;99.90;;;;;;5046426;28;20032;-77
2020/12/10 00:08:51;;;;;;;89.40;32.75;;;3.10;99.90;;;;;;5041869;28;20032;-76
2020/12/10 00:11:17;;;;;;;83.80;32.38;;;3.10;99.90;;;;;;5047405;28;20032;-76
2020/12/10 00:13:42;;;;;;;84.50;30.55;;;3.10;99.90;;;;;;5046903;28;20036;-76
2020/12/10 00:16:11;;;;;;;85.97;32.58;;;3.00;99.90;;;;;;5050327;28;20025;-76
2020/12/10 00:18:40;;;;;;;83.63;31.52;;;3.00;99.90;;;;;;5050589;28;20028;-76
2020/12/10 00:21:07;;;;;;;85.25;32.17;;;2.90;99.90;;;;;;5045406;28;20159;-76
2020/12/10 00:23:33;;;;;;;89.07;33.65;;;2.90;99.90;;;;;;5043912;28;20033;-76
2020/12/10 00:25:58;;;;;;;84.30;31.40;;;2.90;99.90;;;;;;5035496;28;20029;-77
2020/12/10 00:28:24;;;;;;;85.47;32.40;;;3.00;99.90;;;;;;5044962;28;20033;-76
2020/12/10 00:30:49;;;;;;;93.43;33.95;;;2.90;99.90;;;;;;5042623;28;20475;-76
2020/12/10 00:33:15;;;;;;;97.40;33.92;;;2.90;99.90;;;;;;5035834;28;20091;-76
2020/12/10 00:35:40;;;;;;;90.68;31.92;;;2.90;99.90;;;;;;5043202;28;20025;-76
2020/12/10 00:38:06;;;;;;;90.47;34.10;;;2.80;99.90;;;;;;5041825;28;20056;-76
2020/12/10 00:40:31;;;;;;;95.13;34.15;;;2.90;99.90;;;;;;5038471;28;20047;-76
2020/12/10 00:42:57;;;;;;;88.70;33.83;;;3.00;99.90;;;;;;5038840;28;20484;-76
2020/12/10 00:45:22;;;;;;;91.20;34.38;;;3.00;99.90;;;;;;5047043;28;20029;-76
2020/12/10 00:47:48;;;;;;;94.78;33.88;;;3.00;99.90;;;;;;5050002;28;20103;-76
2020/12/10 00:50:13;;;;;;;89.15;33.47;;;2.90;99.90;;;;;;5045170;28;20245;-76
2020/12/10 00:52:39;;;;;;;88.97;32.28;;;2.80;99.90;;;;;;5048236;28;20025;-76
2020/12/10 00:55:04;;;;;;;87.50;32.35;;;2.80;99.90;;;;;;5049433;28;20028;-76
2020/12/10 00:57:30;;;;;;;88.38;31.50;;;2.80;99.90;;;;;;5048931;28;20434;-76
2020/12/10 00:59:56;;;;;;;85.15;30.75;;;2.70;99.90;;;;;;5044387;28;20029;-76
2020/12/10 01:02:21;;;;;;;87.35;32.90;;;2.60;99.90;;;;;;5043061;28;20028;-76
2020/12/10 01:04:47;;;;;;;84.22;31.52;;;2.70;99.90;;;;;;5048859;28;20379;-76
2020/12/10 01:07:12;;;;;;;85.93;32.40;;;2.70;99.90;;;;;;5049682;28;20033;-76
2020/12/10 01:09:38;;;;;;;82.63;31.20;;;2.80;99.90;;;;;;5049420;28;20033;-76
2020/12/10 01:12:04;;;;;;;80.93;29.58;;;2.70;99.90;;;;;;5049363;28;20052;-75
2020/12/10 01:14:31;;;;;;;79.13;29.73;;;2.60;99.90;;;;;;5044280;28;20085;-77
2020/12/10 01:16:56;;;;;;;86.07;30.67;;;2.60;99.90;;;;;;5046972;28;20032;-76
2020/12/10 01:19:22;;;;;;;85.18;31.25;;;2.60;99.90;;;;;;5048854;28;20392;-76
2020/12/10 01:21:47;;;;;;;82.85;31.73;;;2.60;99.90;;;;;;5048580;28;20036;-76
2020/12/10 01:24:13;;;;;;;89.40;32.10;;;2.70;99.90;;;;;;5045503;28;20037;-76
2020/12/10 01:26:38;;;;;;;92.68;32.40;;;2.60;99.90;;;;;;5037738;28;20061;-77
2020/12/10 01:29:05;;;;;;;85.38;30.83;;;2.60;99.90;;;;;;5041024;28;20049;-75
2020/12/10 01:31:31;;;;;;;90.38;32.00;;;2.70;99.90;;;;;;5048714;28;20083;-75
2020/12/10 01:33:57;;;;;;;86.78;31.17;;;2.50;99.90;;;;;;5048769;28;20052;-75
2020/12/10 01:36:28;;;;;;;86.55;32.58;;;2.50;99.90;;;;;;5046341;28;20522;-75
2020/12/10 01:38:53;;;;;;;87.30;30.20;;;2.50;99.90;;;;;;5039605;28;20037;-75
2020/12/10 01:41:20;;;;;;;87.82;30.10;;;2.50;99.90;;;;;;5048425;28;20051;-75
2020/12/10 01:43:47;;;;;;;84.90;31.45;;;2.50;99.90;;;;;;5048536;28;20029;-75
2020/12/10 01:46:13;;;;;;;92.80;33.80;;;2.40;99.90;;;;;;5048569;28;20024;-75
2020/12/10 01:48:38;;;;;;;87.93;31.88;;;2.50;99.90;;;;;;5046716;28;20051;-76
2020/12/10 01:51:05;;;;;;;91.72;31.92;;;2.60;99.90;;;;;;5047822;28;20053;-75
2020/12/10 01:53:31;;;;;;;85.30;32.03;;;2.60;99.90;;;;;;5042982;28;20075;-75
2020/12/10 01:55:57;;;;;;;93.63;32.45;;;2.60;99.90;;;;;;5042617;28;20052;-75
2020/12/10 01:58:22;;;;;;;81.13;31.70;;;2.60;99.90;;;;;;5034565;28;20037;-75
2020/12/10 02:00:48;;;;;;;87.55;30.70;;;2.60;99.90;;;;;;5048159;28;20028;-75
2020/12/10 02:03:13;;;;;;;93.22;32.70;;;2.60;99.90;;;;;;5048609;28;20455;-75
2020/12/10 02:05:46;;;;;;;84.38;31.75;;;2.60;99.90;;;;;;5047791;28;20404;-75
2020/12/10 02:08:12;;;;;;;86.03;32.10;;;2.60;99.90;;;;;;5048143;28;20123;-76
2020/12/10 02:10:38;;;;;;;85.15;30.13;;;2.50;99.90;;;;;;5047199;28;20116;-76
2020/12/10 02:13:04;;;;;;;84.90;31.63;;;2.40;99.90;;;;;;5031083;28;20124;-75
2020/12/10 02:15:33;;;;;;;91.93;32.50;;;2.50;99.90;;;;;;5048114;28;20100;-75
2020/12/10 02:17:59;;;;;;;86.22;29.90;;;2.50;99.90;;;;;;5048223;28;20075;-75
2020/12/10 02:20:25;;;;;;;91.28;31.98;;;2.40;99.90;;;;;;5039725;28;20025;-75
2020/12/10 02:22:58;;;;;;;82.55;29.30;;;2.30;99.90;;;;;;5047805;28;20083;-75
2020/12/10 02:25:23;;;;;;;86.28;31.45;;;2.30;99.90;;;;;;5046682;28;20079;-75
2020/12/10 02:27:48;;;;;;;93.55;32.15;;;2.40;99.90;;;;;;5048564;28;20037;-76
2020/12/10 02:30:14;;;;;;;96.53;32.72;;;2.40;99.90;;;;;;5047028;28;20045;-76
2020/12/10 02:32:39;;;;;;;94.03;32.78;;;2.40;99.90;;;;;;5048135;28;20487;-76
2020/12/10 02:35:05;;;;;;;88.97;32.20;;;2.50;99.90;;;;;;5047244;28;20075;-76
2020/12/10 02:37:30;;;;;;;91.47;32.42;;;2.40;99.90;;;;;;5040109;28;20060;-76
2020/12/10 02:39:56;;;;;;;93.93;32.00;;;2.40;99.90;;;;;;5045203;28;20025;-76
2020/12/10 02:42:22;;;;;;;95.40;33.17;;;2.50;99.90;;;;;;5047697;28;20017;-76
2020/12/10 02:44:48;;;;;;;99.07;33.65;;;2.40;99.90;;;;;;5047914;28;20017;-75
2020/12/10 02:47:13;;;;;;;101.82;34.50;;;2.40;99.90;;;;;;5044549;28;20535;-76
2020/12/10 02:49:39;;;;;;;102.05;33.75;;;2.50;99.90;;;;;;5044698;28;20059;-75
2020/12/10 02:52:04;;;;;;;98.63;34.47;;;2.50;99.90;;;;;;5047139;28;20036;-76
2020/12/10 02:54:29;;;;;;;98.13;33.03;;;2.40;99.90;;;;;;5047549;28;20368;-75
2020/12/10 02:56:58;;;;;;;98.22;33.78;;;2.50;99.90;;;;;;5040820;28;20026;-75
2020/12/10 02:59:23;;;;;;;95.63;32.78;;;2.50;99.90;;;;;;5047043;28;20029;-75
2020/12/10 03:01:52;;;;;;;87.22;29.92;;;2.40;99.90;;;;;;5047419;28;20036;-76
2020/12/10 03:04:18;;;;;;;87.05;33.08;;;2.30;99.90;;;;;;5046345;28;20036;-76
2020/12/10 03:06:43;;;;;;;91.05;32.78;;;2.30;99.90;;;;;;5037887;28;20021;-75
2020/12/10 03:09:09;;;;;;;91.68;32.65;;;2.40;99.90;;;;;;5033255;28;20041;-76
2020/12/10 03:11:34;;;;;;;97.97;31.95;;;2.50;99.90;;;;;;5039206;28;20116;-75
2020/12/10 03:13:59;;;;;;;101.00;31.98;;;2.60;99.90;;;;;;5042065;28;20379;-75
2020/12/10 03:16:25;;;;;;;90.95;32.35;;;2.60;99.90;;;;;;5045694;28;20027;-75
2020/12/10 03:18:50;;;;;;;99.57;33.13;;;2.50;99.90;;;;;;5046616;28;20029;-75
2020/12/10 03:21:16;;;;;;;87.57;30.92;;;2.60;99.90;;;;;;5044360;28;20501;-75
2020/12/10 03:23:41;;;;;;;85.60;31.45;;;2.50;99.90;;;;;;5046340;28;20037;-76
2020/12/10 03:26:07;;;;;;;97.80;32.40;;;2.50;99.90;;;;;;5032617;28;20037;-75
2020/12/10 03:28:32;;;;;;;80.78;28.77;;;2.50;99.90;;;;;;5044820;28;20041;-76
2020/12/10 03:30:58;;;;;;;83.18;30.92;;;2.50;99.90;;;;;;5047410;28;20345;-75
2020/12/10 03:33:23;;;;;;;83.18;29.40;;;2.40;99.90;;;;;;5046372;28;20064;-75
2020/12/10 03:35:49;;;;;;;82.57;30.88;;;2.30;99.90;;;;;;5047244;28;20492;-75
2020/12/10 03:38:14;;;;;;;85.97;29.85;;;2.30;99.90;;;;;;5036963;28;20430;-75
2020/12/10 03:40:39;;;;;;;86.88;32.17;;;2.40;99.90;;;;;;5024195;28;20112;-75
2020/12/10 03:43:05;;;;;;;94.40;31.60;;;2.40;99.90;;;;;;5042575;28;20021;-76
2020/12/10 03:45:32;;;;;;;85.13;31.33;;;2.40;99.90;;;;;;5046366;28;20036;-76
2020/12/10 03:47:58;;;;;;;92.53;31.98;;;2.50;99.90;;;;;;5047339;28;20025;-76
2020/12/10 03:50:23;;;;;;;87.15;31.50;;;2.40;99.90;;;;;;5049229;28;20508;-76
2020/12/10 03:52:49;;;;;;;87.55;31.90;;;2.60;99.90;;;;;;5051205;28;20041;-76
2020/12/10 03:55:14;;;;;;;86.50;30.92;;;2.50;99.90;;;;;;5040399;28;20112;-76
2020/12/10 03:57:40;;;;;;;98.35;31.90;;;2.60;99.90;;;;;;5049314;28;20029;-76
2020/12/10 04:00:05;;;;;;;79.35;31.35;;;2.50;99.90;;;;;;5047482;28;20048;-76
2020/12/10 04:02:31;;;;;;;97.28;34.17;;;2.50;99.90;;;;;;5049100;28;20017;-76
2020/12/10 04:04:56;;;;;;;92.88;31.92;;;2.60;99.90;;;;;;5049790;28;20017;-76
2020/12/10 04:07:22;;;;;;;93.07;33.40;;;2.50;99.90;;;;;;5050546;28;20787;-76
2020/12/10 04:09:47;;;;;;;90.32;31.58;;;2.50;99.90;;;;;;5047943;28;20028;-76
2020/12/10 04:12:13;;;;;;;93.30;30.50;;;2.60;99.90;;;;;;5050880;28;20236;-76
2020/12/10 04:14:38;;;;;;;74.75;28.58;;;2.40;99.90;;;;;;5049051;28;20129;-76
2020/12/10 04:17:04;;;;;;;89.65;30.10;;;2.40;99.90;;;;;;5047403;28;20052;-77
2020/12/10 04:19:29;;;;;;;85.65;30.90;;;2.40;99.90;;;;;;5048264;28;20381;-76
2020/12/10 04:21:54;;;;;;;84.28;30.27;;;2.50;99.90;;;;;;5043953;28;20495;-76
2020/12/10 04:24:20;;;;;;;82.50;29.70;;;2.50;99.90;;;;;;5049682;28;20029;-76
2020/12/10 04:26:45;;;;;;;83.45;30.55;;;2.40;99.90;;;;;;5037777;28;20040;-76
2020/12/10 04:29:13;;;;;;;91.13;30.63;;;2.50;99.90;;;;;;5047792;28;20041;-76
2020/12/10 04:31:40;;;;;;;97.38;32.50;;;2.50;99.90;;;;;;5047981;28;20037;-77
2020/12/10 04:34:05;;;;;;;92.35;30.98;;;2.40;99.90;;;;;;5033616;28;20025;-76
2020/12/10 04:36:31;;;;;;;95.10;32.15;;;2.30;99.90;;;;;;5048770;28;20442;-76
2020/12/10 04:38:56;;;;;;;98.25;33.53;;;2.30;99.90;;;;;;5040347;28;20383;-76
2020/12/10 04:41:22;;;;;;;101.15;33.00;;;2.40;99.90;;;;;;5049819;28;20078;-76
2020/12/10 04:43:48;;;;;;;95.35;32.90;;;2.40;99.90;;;;;;5050217;28;20049;-77
2020/12/10 04:46:14;;;;;;;91.10;32.72;;;2.40;99.90;;;;;;5049848;28;20036;-76
2020/12/10 04:48:40;;;;;;;90.90;31.25;;;2.50;99.90;;;;;;5049175;28;20032;-76
2020/12/10 04:51:07;;;;;;;86.55;30.55;;;2.40;99.90;;;;;;5049472;28;20029;-76
2020/12/10 04:53:33;;;;;;;96.68;32.10;;;2.40;99.90;;;;;;5046582;28;20033;-76
2020/12/10 04:56:04;;;;;;;98.85;32.63;;;2.30;99.90;;;;;;5050300;28;20033;-76
2020/12/10 04:58:29;;;;;;;94.28;31.55;;;2.30;99.90;;;;;;5039776;28;20048;-76
2020/12/10 05:00:58;;;;;;;95.82;31.55;;;2.40;99.90;;;;;;5048639;28;20699;-76
2020/12/10 05:03:23;;;;;;;98.50;31.70;;;2.50;99.90;;;;;;5047243;28;20053;-76
2020/12/10 05:05:49;;;;;;;92.32;30.70;;;2.50;99.90;;;;;;5045652;28;20079;-76
2020/12/10 05:08:27;;;;;;;86.68;29.95;;;2.50;99.90;;;;;;5048439;28;20039;-76
2020/12/10 05:10:53;;;;;;;88.60;31.05;;;2.30;99.90;;;;;;5047736;28;20029;-76
2020/12/10 05:13:18;;;;;;;88.35;30.08;;;2.40;99.90;;;;;;5048133;28;20086;-77
2020/12/10 05:15:44;;;;;;;98.35;31.77;;;2.30;99.90;;;;;;5047063;28;20127;-76
2020/12/10 05:18:10;;;;;;;98.13;31.77;;;2.20;99.90;;;;;;5046741;28;20040;-76
2020/12/10 05:20:46;;;;;;;98.15;32.17;;;2.20;99.90;;;;;;5048323;28;20025;-77
2020/12/10 05:23:14;;;;;;;96.85;32.10;;;2.30;99.90;;;;;;5044855;28;20383;-76
2020/12/10 05:25:51;;;;;;;95.60;32.00;;;2.40;99.90;;;;;;5051677;28;20035;-76
2020/12/10 05:28:24;;;;;;;98.00;33.05;;;2.50;99.90;;;;;;5047506;28;20028;-76
2020/12/10 05:31:04;;;;;;;99.90;33.22;;;2.50;99.90;;;;;;5037602;28;20132;-76
2020/12/10 05:33:30;;;;;;;89.03;31.27;;;2.50;99.90;;;;;;5058162;28;20035;-76
2020/12/10 05:36:12;;;;;;;95.72;31.42;;;2.50;99.90;;;;;;5039979;28;20030;-76
2020/12/10 05:39:05;;;;;;;86.10;30.23;;;2.50;99.90;;;;;;5048140;28;20037;-76
2020/12/10 05:41:38;;;;;;;91.40;32.53;;;2.50;99.90;;;;;;5042956;28;20479;-76
2020/12/10 05:44:12;;;;;;;101.05;32.50;;;2.50;99.90;;;;;;5048122;28;20136;-76
2020/12/10 05:46:38;;;;;;;95.57;31.63;;;2.40;99.90;;;;;;5047283;28;20028;-76
2020/12/10 05:49:04;;;;;;;106.07;33.17;;;2.40;99.90;;;;;;5042222;28;20037;-76
2020/12/10 05:51:44;;;;;;;90.43;30.63;;;2.40;99.90;;;;;;5047372;28;20035;-76
2020/12/10 05:54:11;;;;;;;86.22;28.23;;;2.50;99.90;;;;;;5045163;28;20154;-75
2020/12/10 05:56:54;;;;;;;82.32;28.15;;;2.50;99.90;;;;;;5041432;28;20030;-78
2020/12/10 05:59:24;;;;;;;80.80;27.67;;;2.40;99.90;;;;;;5049424;28;20029;-79
2020/12/10 06:01:49;;;;;;;80.75;28.27;;;2.40;99.90;;;;;;5044360;28;20013;-76
2020/12/10 06:04:15;;;;;;;75.95;26.48;;;2.30;99.90;;;;;;5047446;28;20025;-74
2020/12/10 06:06:41;;;;;;;76.43;27.67;;;2.20;99.90;;;;;;5046959;28;20025;-76
2020/12/10 06:09:07;;;;;;;80.22;26.65;;;2.20;99.90;;;;;;5047745;28;20067;-79
2020/12/10 06:11:34;;;;;;;86.57;28.65;;;2.30;99.90;;;;;;5046365;28;20033;-79
2020/12/10 06:14:00;;;;;;;86.60;27.42;;;2.10;99.90;;;;;;5046546;28;20156;-78
2020/12/10 06:16:26;;;;;;;84.10;28.42;;;2.10;99.90;;;;;;5040358;28;20026;-75
2020/12/10 06:19:03;;;;;;;84.78;28.90;;;2.20;99.90;;;;;;5036410;28;20024;-79
2020/12/10 06:21:36;;;;;;;91.65;30.67;;;2.30;99.90;;;;;;5044694;28;20017;-78
2020/12/10 06:24:26;;;;;;;85.22;30.33;;;2.20;99.90;;;;;;5045559;28;20060;-77
2020/12/10 06:26:56;;;;;;;88.78;29.35;;;2.30;99.90;;;;;;5047757;28;20028;-78
2020/12/10 06:29:31;;;;;;;87.40;28.95;;;2.40;99.90;;;;;;5034605;28;20045;-77
2020/12/10 06:32:12;;;;;;;88.28;30.88;;;2.40;99.90;;;;;;5037620;28;20029;-73
2020/12/10 06:34:47;;;;;;;90.30;29.98;;;2.40;99.90;;;;;;5043451;28;20025;-77
2020/12/10 06:37:21;;;;;;;91.40;31.02;;;2.50;99.90;;;;;;5036243;28;20148;-78
2020/12/10 06:39:48;;;;;;;91.55;30.10;;;2.50;99.90;;;;;;5041367;28;20022;-78
2020/12/10 06:42:13;;;;;;;89.68;30.48;;;2.40;99.90;;;;;;5042997;28;20025;-78
2020/12/10 06:44:39;;;;;;;91.07;31.17;;;2.40;99.90;;;;;;5044006;28;20031;-78
2020/12/10 06:47:05;;;;;;;90.30;30.33;;;2.40;99.90;;;;;;5044193;28;20074;-78
2020/12/10 06:49:32;;;;;;;89.57;31.67;;;2.40;99.90;;;;;;5042170;28;20037;-78
2020/12/10 06:52:12;;;;;;;97.65;31.95;;;2.40;99.90;;;;;;5045307;28;20543;-78
2020/12/10 06:55:06;;;;;;;96.75;29.33;;;2.60;99.90;;;;;;5042394;28;20091;-78
2020/12/10 06:57:58;;;;;;;82.15;28.90;;;2.60;99.90;;;;;;5042195;28;20543;-78
2020/12/10 07:00:34;;;;;;;75.15;26.90;;;2.50;99.90;;;;;;5044117;28;20059;-78
2020/12/10 07:03:10;;;;;;;73.95;26.27;;;2.50;99.90;;;;;;5043585;28;20111;-78
2020/12/10 07:05:36;;;;;;;88.00;27.67;;;2.30;99.90;;;;;;5042904;28;20052;-78
2020/12/10 07:08:09;;;;;;;74.53;26.98;;;2.20;99.90;;;;;;5044462;28;20068;-78
2020/12/10 07:10:45;;;;;;;71.75;26.25;;;2.20;99.90;;;;;;5043999;28;20033;-78
2020/12/10 07:13:14;;;;;;;82.75;27.52;;;2.10;99.90;;;;;;5044243;28;20133;-77
2020/12/10 07:15:40;;;;;;;77.32;25.83;;;2.20;99.90;;;;;;5043009;28;20484;-78
2020/12/10 07:18:05;;;;;;;80.30;27.52;;;2.20;99.90;;;;;;5044434;28;20083;-77
2020/12/10 07:20:33;;;;;;;74.22;25.20;;;2.20;99.90;;;;;;5045154;28;20072;-78
2020/12/10 07:23:00;;;;;;;70.95;26.52;;;2.30;99.90;;;;;;5044296;28;20066;-77
2020/12/10 07:25:26;;;;;;;78.22;26.90;;;2.30;99.90;;;;;;5048370;28;20049;-77
2020/12/10 07:27:52;;;;;;;80.70;26.65;;;2.20;99.90;;;;;;5048304;28;20024;-78
2020/12/10 07:30:18;;;;;;;69.63;25.38;;;2.30;99.90;;;;;;5049212;28;20403;-77
2020/12/10 07:32:45;;;;;;;87.10;28.02;;;2.20;99.90;;;;;;5047975;28;20044;-78
2020/12/10 07:35:12;;;;;;;82.57;27.73;;;2.20;99.90;;;;;;5047815;28;20052;-78
2020/12/10 07:37:39;;;;;;;83.80;27.00;;;2.30;99.90;;;;;;5048727;28;20021;-78
2020/12/10 07:40:15;;;;;;;82.90;26.35;;;2.40;99.90;;;;;;5048984;28;20163;-78
2020/12/10 07:42:42;;;;;;;83.25;26.70;;;2.30;99.90;;;;;;5048411;28;20430;-77
2020/12/10 07:45:15;;;;;;;83.80;27.77;;;2.30;99.90;;;;;;5046909;28;20539;-78
2020/12/10 07:47:42;;;;;;;80.22;26.85;;;2.30;99.90;;;;;;5049131;28;20060;-78
2020/12/10 07:50:22;;;;;;;78.97;27.92;;;2.20;99.90;;;;;;5047775;28;20074;-78
2020/12/10 07:52:49;;;;;;;84.45;27.83;;;2.20;99.90;;;;;;5045775;28;20017;-77
2020/12/10 07:55:23;;;;;;;88.07;28.45;;;2.10;99.90;;;;;;5048620;28;20483;-78
2020/12/10 07:58:22;;;;;;;93.80;27.27;;;2.20;99.90;;;;;;5048720;28;20697;-77
2020/12/10 08:00:48;;;;;;;83.80;28.98;;;2.30;99.90;;;;;;5046651;28;20479;-77
2020/12/10 08:03:18;;;;;;;83.53;27.83;;;2.30;99.90;;;;;;5047921;28;20071;-77
2020/12/10 08:05:57;;;;;;;83.38;28.63;;;2.30;99.90;;;;;;5047602;28;20033;-77
2020/12/10 08:08:35;;;;;;;81.75;27.48;;;2.30;99.90;;;;;;5046072;28;20047;-77
2020/12/10 08:11:12;;;;;;;91.25;27.98;;;2.30;99.90;;;;;;5046074;28;20025;-77
2020/12/10 08:14:02;;;;;;;87.30;28.10;;;2.40;99.90;;;;;;5047693;28;20033;-77
2020/12/10 08:16:39;;;;;;;100.40;28.52;;;2.30;99.90;;;;;;5046951;28;20032;-77
2020/12/10 08:19:57;;;;;;;91.03;28.30;;;2.30;99.90;;;;;;5045989;28;20037;-77
2020/12/10 08:22:25;;;;;;;82.32;25.88;;;2.40;99.90;;;;;;5018928;28;20047;-76
2020/12/10 08:24:51;;;;;;;87.53;27.23;;;2.50;99.90;;;;;;5046837;28;20078;-76
2020/12/10 08:27:18;;;;;;;84.70;29.52;;;2.50;99.90;;;;;;5046455;28;20033;-76
2020/12/10 08:30:11;;;;;;;75.93;28.00;;;2.50;99.90;;;;;;5048096;28;20269;-76
2020/12/10 08:32:59;;;;;;;82.43;27.83;;;2.50;99.90;;;;;;5054582;28;20591;-75
2020/12/10 08:35:25;;;;;;;80.97;27.05;;;2.60;99.90;;;;;;5036700;28;20052;-75
2020/12/10 08:37:50;;;;;;;82.32;27.67;;;2.60;99.90;;;;;;5050339;28;20076;-77
2020/12/10 08:40:24;;;;;;;78.43;26.52;;;2.60;99.90;;;;;;5035650;28;20026;-75
2020/12/10 08:42:50;;;;;;;71.55;24.85;;;2.50;99.90;;;;;;5048983;28;20025;-75
2020/12/10 08:45:35;;;;;;;75.32;26.38;;;2.40;99.90;;;;;;5041377;28;20815;-75
2020/12/10 08:48:02;;;;;;;63.50;25.17;;;2.30;99.90;;;;;;5043763;28;20103;-76
2020/12/10 08:50:29;;;;;;;75.00;26.02;;;2.40;99.90;;;;;;5032056;28;20020;-76
2020/12/10 08:53:05;;;;;;;82.60;27.33;;;2.40;99.90;;;;;;5030187;28;20099;-76
2020/12/10 08:56:03;;;;;;;71.53;26.45;;;2.40;99.90;;;;;;5035129;28;20406;-76
2020/12/10 08:58:29;;;;;;;77.60;25.00;;;2.50;99.90;;;;;;5049100;28;20024;-76
2020/12/10 09:00:57;;;;;;;82.30;28.17;;;2.40;99.90;;;;;;5050879;28;20029;-75
2020/12/10 09:03:24;;;;;;;86.70;27.15;;;2.50;99.90;;;;;;5050753;28;20123;-75
2020/12/10 09:05:50;;;;;;;80.55;25.92;;;2.40;99.90;;;;;;5050472;28;20124;-76
2020/12/10 09:08:15;;;;;;;125.78;40.47;;;2.40;99.90;;;;;;5052107;28;20600;-76
2020/12/10 09:10:41;;;;;;;98.85;33.80;;;2.60;99.90;;;;;;5049780;28;20017;-76
2020/12/10 09:13:08;;;;;;;91.57;32.28;;;2.60;99.90;;;;;;5051585;28;20024;-76
2020/12/10 09:15:34;;;;;;;86.75;32.90;;;2.60;99.90;;;;;;5049440;28;20058;-76
2020/12/10 09:18:00;;;;;;;90.20;32.88;;;2.60;99.90;;;;;;5052330;28;20939;-76
2020/12/10 09:20:34;;;;;;;74.03;26.35;;;2.60;99.90;;;;;;5049818;28;20534;-76
2020/12/10 09:23:00;;;;;;;86.20;29.27;;;2.60;99.90;;;;;;5049259;28;20561;-76
2020/12/10 09:25:25;;;;;;;87.93;28.95;;;2.60;99.90;;;;;;5051391;28;20013;-76
2020/12/10 09:27:51;;;;;;;97.72;33.15;;;2.50;99.90;;;;;;5050530;28;20360;-75
2020/12/10 09:30:17;;;;;;;84.75;31.83;;;2.60;99.90;;;;;;5050169;28;20041;-75
2020/12/10 09:32:42;;;;;;;86.60;30.52;;;2.60;99.90;;;;;;5050988;28;20425;-76
2020/12/10 09:35:10;;;;;;;86.60;27.52;;;2.60;99.90;;;;;;5051180;28;20504;-75
2020/12/10 09:37:40;;;;;;;79.10;27.25;;;2.50;99.90;;;;;;5054420;28;20101;-75
2020/12/10 09:40:07;;;;;;;72.65;25.50;;;2.50;99.90;;;;;;5049986;28;20050;-76
2020/12/10 09:42:40;;;;;;;73.18;24.95;;;2.50;99.90;;;;;;5051929;28;20033;-76
2020/12/10 09:45:06;;;;;;;86.70;25.60;;;2.40;99.90;;;;;;5048575;28;20029;-76
2020/12/10 09:47:32;;;;;;;70.22;25.05;;;2.40;99.90;;;;;;5047322;28;21367;-75
2020/12/10 09:49:58;;;;;;;71.78;24.30;;;2.40;99.90;;;;;;5050212;28;20029;-75
2020/12/10 09:52:25;;;;;;;76.90;25.45;;;2.40;99.90;;;;;;5053267;28;20044;-76
2020/12/10 09:55:07;;;;;;;70.72;24.38;;;2.40;99.90;;;;;;5048536;28;20120;-76
2020/12/10 09:57:32;;;;;;;85.40;24.20;;;2.40;99.90;;;;;;5051890;28;20455;-75
2020/12/10 09:59:59;;;;;;;71.97;24.35;;;2.30;99.90;;;;;;5048892;28;20039;-75
2020/12/10 10:02:25;;;;;;;72.80;25.70;;;2.30;99.90;;;;;;5048573;28;20036;-75
2020/12/10 10:04:51;;;;;;;70.68;24.63;;;2.40;99.90;;;;;;5059019;22;20052;-76
2020/12/10 10:07:17;;;;;;;91.53;28.40;;;2.50;99.90;;;;;;5050637;28;20039;-76
2020/12/10 10:09:43;;;;;;;87.80;27.45;;;2.60;99.90;;;;;;5051669;28;20795;-76
2020/12/10 10:12:09;;;;;;;66.97;22.45;;;2.60;99.90;;;;;;5050599;28;20079;-75
2020/12/10 10:14:36;;;;;;;75.88;24.23;;;2.40;99.90;;;;;;5050722;28;20135;-75
2020/12/10 10:17:07;;;;;;;78.05;25.23;;;2.50;99.90;;;;;;5053087;28;20044;-76
2020/12/10 10:19:33;;;;;;;87.70;25.33;;;2.50;99.90;;;;;;5050816;28;20487;-76
2020/12/10 10:21:59;;;;;;;72.85;23.38;;;2.60;99.90;;;;;;5050149;28;20028;-76
2020/12/10 10:24:25;;;;;;;76.65;25.30;;;2.60;99.90;;;;;;5053026;28;20382;-76
2020/12/10 10:26:51;;;;;;;81.20;24.88;;;2.50;99.90;;;;;;5050873;28;20062;-76
2020/12/10 10:29:21;;;;;;;74.82;24.58;;;2.50;99.90;;;;;;5052556;28;20522;-76
2020/12/10 10:31:51;;;;;;;70.20;24.80;;;2.40;99.90;;;;;;5049774;28;20073;-77
2020/12/10 10:34:17;;;;;;;92.80;27.77;;;2.50;99.90;;;;;;5050116;28;20494;-77
2020/12/10 10:36:43;;;;;;;77.53;24.85;;;2.60;99.90;;;;;;5052626;28;20538;-77
2020/12/10 10:39:10;;;;;;;80.75;27.20;;;2.60;99.90;;;;;;5050997;28;20718;-75
2020/12/10 10:41:46;;;;;;;80.35;26.95;;;2.60;99.90;;;;;;5050641;28;20032;-76
2020/12/10 10:44:12;;;;;;;81.32;25.98;;;2.60;99.90;;;;;;5051035;28;20153;-77
2020/12/10 10:46:38;;;;;;;73.35;24.27;;;2.60;99.90;;;;;;5052327;28;20086;-76
2020/12/10 10:49:04;;;;;;;74.05;25.42;;;2.60;99.90;;;;;;5050394;28;20025;-74
2020/12/10 10:51:30;;;;;;;82.18;25.10;;;2.60;99.90;;;;;;5052993;28;20032;-75
2020/12/10 10:53:56;;;;;;;78.68;25.65;;;2.50;99.90;;;;;;5049839;28;20028;-75
2020/12/10 10:56:22;;;;;;;89.85;24.85;;;2.60;99.90;;;;;;5052650;28;20116;-74
2020/12/10 10:58:48;;;;;;;81.10;26.52;;;2.60;99.90;;;;;;5049234;28;20094;-77
2020/12/10 11:01:14;;;;;;;74.18;25.98;;;2.60;99.90;;;;;;5049997;28;20497;-77
2020/12/10 11:03:40;;;;;;;78.57;25.77;;;2.60;99.90;;;;;;5047844;28;20053;-76
2020/12/10 11:06:06;;;;;;;89.15;25.80;;;2.60;99.90;;;;;;5039239;28;20040;-76
2020/12/10 11:08:31;;;;;;;79.60;25.10;;;2.70;99.90;;;;;;5043175;28;20441;-76
2020/12/10 11:10:57;;;;;;;82.22;25.95;;;2.60;99.90;;;;;;5040038;28;20051;-76
2020/12/10 11:13:22;;;;;;;83.57;25.08;;;2.70;99.90;;;;;;5043232;28;20021;-76
2020/12/10 11:15:48;;;;;;;78.90;24.92;;;2.70;99.90;;;;;;5039408;28;20024;-76
2020/12/10 11:18:13;;;;;;;69.63;24.58;;;2.80;99.90;;;;;;5038632;28;20155;-76
2020/12/10 11:20:39;;;;;;;76.22;22.35;;;2.60;99.90;;;;;;5039771;28;20024;-78
2020/12/10 11:23:04;;;;;;;70.53;21.77;;;2.60;99.90;;;;;;5052921;28;20025;-77
2020/12/10 11:25:30;;;;;;;68.43;22.80;;;2.60;99.90;;;;;;5053564;28;20051;-78
2020/12/10 11:27:55;;;;;;;85.47;25.85;;;2.70;99.90;;;;;;5051708;28;20024;-75
2020/12/10 11:30:21;;;;;;;78.30;23.75;;;2.70;99.90;;;;;;5053034;28;20036;-76
2020/12/10 11:32:47;;;;;;;77.45;24.85;;;2.60;99.90;;;;;;5052073;28;20079;-75
2020/12/10 11:35:12;;;;;;;74.45;23.67;;;2.70;99.90;;;;;;5043898;28;20048;-76
2020/12/10 11:37:38;;;;;;;80.38;24.40;;;2.60;99.90;;;;;;5045938;28;20032;-76
2020/12/10 11:40:03;;;;;;;70.22;22.45;;;2.60;99.90;;;;;;5045079;28;20045;-76
2020/12/10 11:42:29;;;;;;;63.90;22.08;;;2.60;99.90;;;;;;5047777;28;20052;-76
2020/12/10 11:44:55;;;;;;;69.43;21.60;;;2.50;99.90;;;;;;5045809;28;20067;-76
2020/12/10 11:47:20;;;;;;;70.47;22.83;;;2.50;99.90;;;;;;5044275;28;20029;-76
2020/12/10 11:49:45;;;;;;;70.40;23.90;;;2.70;99.90;;;;;;5046264;28;20052;-76
2020/12/10 11:52:11;;;;;;;63.47;21.88;;;2.80;99.90;;;;;;5044634;28;20399;-76
2020/12/10 11:54:37;;;;;;;71.63;21.38;;;2.60;99.90;;;;;;5044598;28;20025;-76
2020/12/10 11:57:02;;;;;;;64.55;21.70;;;2.60;99.90;;;;;;5045806;28;20017;-76
2020/12/10 11:59:28;;;;;;;67.45;21.30;;;2.50;99.90;;;;;;5048057;28;20444;-76
2020/12/10 12:01:53;;;;;;;68.85;22.50;;;2.50;99.90;;;;;;5041208;28;20087;-76
2020/12/10 12:04:19;;;;;;;65.65;20.60;;;2.50;99.90;;;;;;5043231;28;20048;-76
2020/12/10 12:06:45;;;;;;;74.13;21.70;;;2.50;99.90;;;;;;5045916;28;20029;-76
2020/12/10 12:09:11;;;;;;;75.07;23.42;;;2.50;99.90;;;;;;5044816;28;20627;-76
2020/12/10 12:11:36;;;;;;;78.28;25.55;;;2.50;99.90;;;;;;5050981;28;20090;-76
2020/12/10 12:14:02;;;;;;;77.43;24.83;;;2.40;99.90;;;;;;5049777;28;20032;-76
2020/12/10 12:16:27;;;;;;;79.10;23.15;;;2.50;99.90;;;;;;5049285;28;20032;-75
2020/12/10 12:18:53;;;;;;;66.68;21.85;;;2.50;99.90;;;;;;5046158;28;20463;-76
2020/12/10 12:21:25;;;;;;;61.13;21.40;;;2.50;99.90;;;;;;5046189;28;20160;-76
2020/12/10 12:23:51;;;;;;;63.00;21.08;;;2.50;99.90;;;;;;5046723;28;20036;-76
2020/12/10 12:26:18;;;;;;;52.97;20.52;;;2.50;99.90;;;;;;5046803;28;20048;-75
2020/12/10 12:28:45;;;;;;;54.60;20.60;;;2.40;99.90;;;;;;5048386;28;20120;-75
2020/12/10 12:31:11;;;;;;;51.10;19.13;;;2.50;99.90;;;;;;5045662;28;20545;-76
2020/12/10 12:33:37;;;;;;;61.90;19.13;;;2.40;99.90;;;;;;5049206;28;20130;-76
2020/12/10 12:36:07;;;;;;;59.95;19.85;;;2.40;99.90;;;;;;5046224;28;20523;-75
2020/12/10 12:38:32;;;;;;;62.15;18.55;;;2.30;99.90;;;;;;5050128;28;20028;-75
2020/12/10 12:40:58;;;;;;;61.45;19.33;;;2.30;99.90;;;;;;5049026;28;20569;-76